AAL598 KLAS-KDFW
Flight info
| Callsign | AAL598 |
|---|---|
| Flight time | N/A |
| Altitude | 37000 |
| Route | FLG016031 TXO TURKI VKTRY2 KDFW |
| Aircraft | B77L/H-SDE1E2E3FGHIJ2J3J4J5M1RWXY/LB1D1 |
Departure
| Time | N/A |
|---|---|
| Airport | Harry Reid International Airport (KLAS) |
Arrival
| Time | 2026-05-04 19:35 |
|---|---|
| Airport | Dallas Fort Worth International Airport (KDFW) |
| Time | Latitude | Longitude | Altitude | Speed | Heading |
|---|---|---|---|---|---|
| 2026-05-04 19:35 | 32.90462 | -97.03499 | 625 ft | 0 kts | 274° |
| 2026-05-04 19:39 | 32.90462 | -97.03492 | 629 ft | 3 kts | 274° |
| 2026-05-04 19:40 | 32.90460 | -97.03472 | 621 ft | 2 kts | 274° |
| 2026-05-04 19:40 | 32.90459 | -97.03451 | 625 ft | 2 kts | 274° |
| 2026-05-04 19:40 | 32.90458 | -97.03431 | 625 ft | 2 kts | 279° |
| 2026-05-04 19:40 | 32.90450 | -97.03414 | 625 ft | 2 kts | 338° |
| 2026-05-04 19:41 | 32.90440 | -97.03411 | 625 ft | 0 kts | 11° |
| 2026-05-04 19:41 | 32.90444 | -97.03408 | 622 ft | 0 kts | 26° |
| 2026-05-04 19:41 | 32.90450 | -97.03404 | 625 ft | 6 kts | 28° |
| 2026-05-04 19:41 | 32.90555 | -97.03352 | 619 ft | 24 kts | 22° |
| 2026-05-04 19:42 | 32.90655 | -97.03316 | 624 ft | 30 kts | 1° |
| 2026-05-04 19:42 | 32.90719 | -97.03314 | 622 ft | 33 kts | 1° |
| 2026-05-04 19:42 | 32.90984 | -97.03308 | 620 ft | 41 kts | 1° |
| 2026-05-04 19:42 | 32.91049 | -97.03307 | 619 ft | 41 kts | 0° |
| 2026-05-04 19:43 | 32.91103 | -97.03306 | 622 ft | 40 kts | 0° |
| 2026-05-04 19:43 | 32.91372 | -97.03264 | 620 ft | 38 kts | 31° |
| 2026-05-04 19:43 | 32.91419 | -97.03128 | 618 ft | 11 kts | 91° |
| 2026-05-04 19:43 | 32.91418 | -97.03114 | 620 ft | 10 kts | 91° |
| 2026-05-04 19:44 | 32.91414 | -97.03030 | 625 ft | 11 kts | 107° |
| 2026-05-04 19:44 | 32.91301 | -97.02995 | 618 ft | 29 kts | 181° |
| 2026-05-04 19:44 | 32.90829 | -97.03002 | 615 ft | 105 kts | 180° |
| 2026-05-04 19:44 | 32.89876 | -97.03006 | 678 ft | 163 kts | 182° |
| 2026-05-04 19:45 | 32.88663 | -97.03015 | 1287 ft | 186 kts | 180° |
| 2026-05-04 19:45 | 32.87321 | -97.02770 | 1774 ft | 213 kts | 156° |
| 2026-05-04 19:45 | 32.86162 | -97.01462 | 2044 ft | 249 kts | 134° |
| 2026-05-04 19:45 | 32.84994 | -96.99739 | 2118 ft | 282 kts | 134° |
| 2026-05-04 19:46 | 32.83907 | -96.97749 | 2773 ft | 292 kts | 114° |
| 2026-05-04 19:46 | 32.83660 | -96.95432 | 4086 ft | 270 kts | 98° |
| 2026-05-04 19:46 | 32.83561 | -96.93245 | 4995 ft | 265 kts | 97° |
| 2026-05-04 19:46 | 32.83444 | -96.91003 | 5434 ft | 277 kts | 97° |
| 2026-05-04 19:47 | 32.83307 | -96.88617 | 5735 ft | 299 kts | 96° |
| 2026-05-04 19:47 | 32.83160 | -96.86111 | 6398 ft | 307 kts | 96° |
| 2026-05-04 19:47 | 32.83173 | -96.83559 | 7138 ft | 313 kts | 88° |
| 2026-05-04 19:47 | 32.83339 | -96.81229 | 7968 ft | 310 kts | 85° |
| 2026-05-04 19:48 | 32.83563 | -96.78676 | 8821 ft | 313 kts | 85° |
| 2026-05-04 19:48 | 32.83795 | -96.76073 | 9511 ft | 320 kts | 85° |
| 2026-05-04 19:48 | 32.84023 | -96.73429 | 10221 ft | 325 kts | 84° |
| 2026-05-04 19:48 | 32.84250 | -96.70680 | 10534 ft | 346 kts | 84° |
| 2026-05-04 19:49 | 32.84485 | -96.67733 | 10707 ft | 370 kts | 84° |
| 2026-05-04 19:49 | 32.84726 | -96.64595 | 10873 ft | 391 kts | 84° |
| 2026-05-04 19:49 | 32.84972 | -96.61317 | 11292 ft | 402 kts | 84° |
| 2026-05-04 19:50 | 32.85445 | -96.54841 | 12566 ft | 409 kts | 84° |
| 2026-05-04 19:50 | 32.85688 | -96.51453 | 13225 ft | 413 kts | 83° |
| 2026-05-04 19:50 | 32.85932 | -96.48035 | 13827 ft | 417 kts | 83° |
| 2026-05-04 19:50 | 32.86177 | -96.44585 | 14397 ft | 420 kts | 83° |
| 2026-05-04 19:51 | 32.86423 | -96.41109 | 14971 ft | 424 kts | 83° |
| 2026-05-04 19:51 | 32.86671 | -96.37594 | 15474 ft | 429 kts | 83° |
| 2026-05-04 19:51 | 32.86921 | -96.34040 | 15990 ft | 434 kts | 83° |
| 2026-05-04 19:51 | 32.87173 | -96.30445 | 16520 ft | 438 kts | 83° |
| 2026-05-04 19:52 | 32.87425 | -96.26821 | 17057 ft | 442 kts | 83° |
| 2026-05-04 19:52 | 32.87680 | -96.23155 | 17550 ft | 447 kts | 83° |
| 2026-05-04 19:52 | 32.87935 | -96.19456 | 18052 ft | 451 kts | 83° |
| 2026-05-04 19:52 | 32.88192 | -96.15717 | 18518 ft | 455 kts | 83° |
| 2026-05-04 19:53 | 32.88450 | -96.11951 | 18959 ft | 458 kts | 83° |
| 2026-05-04 19:53 | 32.88708 | -96.08158 | 19432 ft | 462 kts | 83° |
| 2026-05-04 19:53 | 32.88968 | -96.04329 | 19878 ft | 465 kts | 83° |
| 2026-05-04 19:53 | 32.89224 | -96.00532 | 20301 ft | 469 kts | 83° |
| 2026-05-04 19:54 | 32.89485 | -95.96648 | 20739 ft | 472 kts | 83° |
| 2026-05-04 19:54 | 32.89747 | -95.92736 | 21185 ft | 476 kts | 82° |
| 2026-05-04 19:54 | 32.90009 | -95.88797 | 21604 ft | 479 kts | 82° |
| 2026-05-04 19:54 | 32.90272 | -95.84830 | 22017 ft | 482 kts | 82° |
| 2026-05-04 19:55 | 32.90536 | -95.80839 | 22418 ft | 486 kts | 82° |
| 2026-05-04 19:55 | 32.90800 | -95.76819 | 22831 ft | 489 kts | 82° |
| 2026-05-04 19:55 | 32.91064 | -95.72771 | 23220 ft | 492 kts | 82° |
| 2026-05-04 19:55 | 32.91329 | -95.68695 | 23574 ft | 496 kts | 82° |
| 2026-05-04 19:56 | 32.91595 | -95.64586 | 23829 ft | 500 kts | 82° |
| 2026-05-04 19:56 | 32.91862 | -95.60445 | 24123 ft | 504 kts | 82° |
| 2026-05-04 19:56 | 32.92129 | -95.56271 | 24415 ft | 507 kts | 82° |
| 2026-05-04 19:56 | 32.92396 | -95.52070 | 24698 ft | 510 kts | 82° |
| 2026-05-04 19:57 | 32.92664 | -95.47842 | 24976 ft | 514 kts | 81° |
| 2026-05-04 19:57 | 32.92932 | -95.43588 | 25247 ft | 517 kts | 81° |